Nearby METAR Reports

 

EGNX - East Midlands, United Kingdom
Distance from station: W 5mi, 8km
Updated: 22/10/2021 01:50
Partly cloudy
Partly cloudy
 Wind from WSW
Wind: WSW 18 mph , 30 km/h
Temperature: 8°C
Wind Chill: 4°C
Dew Point: 4°C
Humidity: 76%
Barometer: 1015 hPa
Clouds: Partly cloudy
Visibility: 6 miles , 10 km
Cloud details: Partly cloudy 1311 m
2021/10/22 00:50 EGNX 220050Z 25016KT 9999 SCT043 08/04 Q1015
EGBB - Birmingham Airpo, United Kingdom
Distance from station: SW 34mi, 55km
Updated: 22/10/2021 01:50
Partly cloudy
Partly cloudy
 Wind from SSW
Wind: SSW 5 mph , 7 km/h
Temperature: 6°C
Wind Chill: 4°C
Dew Point: 4°C
Humidity: 87%
Barometer: 1017 hPa
Clouds: Partly cloudy
Visibility: 6 miles , 10 km
Cloud details: Partly cloudy 1341 m
2021/10/22 00:50 EGBB 220050Z 20004KT 9999 SCT044 06/04 Q1017
 
EGXP - Scampton RAF, United Kingdom
Distance from station: NE 41mi, 66km
Updated: 22/10/2021 01:50
Clear
Clear
 Wind from WSW
Wind: WSW 13 mph , 20 km/h
Temperature: 5°C
Wind Chill: 1°C
Dew Point: 4°C
Humidity: 93%
Barometer: 1013 hPa
Clouds: Clear
Visibility: 6 miles , 10 km
2021/10/22 00:50 EGXP 220050Z AUTO 24011KT 9999 // NCD 05/04 Q1013
EGCN - Doncaster Sheffi, United Kingdom
Distance from station: N 46mi, 74km
Updated: 22/10/2021 01:50
Partly cloudy
Partly cloudy
 Wind from WSW
Wind: WSW 15 mph , 24 km/h
Temperature: 8°C
Wind Chill: 4°C
Dew Point: 4°C
Humidity: 76%
Barometer: 1015 hPa
Clouds: Partly cloudy
Visibility: 6 miles , 10 km
Cloud details: Partly cloudy 1341 m
2021/10/22 00:50 EGCN 220050Z AUTO 25013KT 9999 SCT044/// 08/04 Q1015
 
EGPB - Sumburgh, United Kingdom
Distance from station: N 491mi, 791km
Updated: 22/10/2021 01:50
Mostly cloudy
Mostly cloudy
 Wind from NNW
Wind: NNW 21 mph , 33 km/h, Gust: 36 mph , 57 km/h
Temperature: 5°C
Wind Chill: 0°C
Dew Point: 2°C
Humidity: 81%
Barometer: 999 hPa
Clouds: Mostly cloudy
Visibility: 6 miles , 10 km
Cloud details: Mostly cloudy 427 m
Mostly cloudy 732 m
Mostly cloudy 1189 m
2021/10/22 00:50 EGPB 220050Z AUTO 33018G31KT 9999 BKN014/// BKN024/// BKN039/// 05/02 Q0999 RERA
EGPO - Stornoway, United Kingdom
Distance from station: NW 561mi, 903km
Updated: 22/10/2021 01:50
Mostly cloudy
Mostly cloudy
 Wind from NW
Wind: NW 6 mph , 9 km/h
Temperature: 7°C
Wind Chill: 6°C
Dew Point: 5°C
Humidity: 87%
Barometer: 1008 hPa
Clouds: Mostly cloudy
Visibility: 6 miles , 10 km
Cloud details: Mostly cloudy 914 m
Mostly cloudy 1250 m
2021/10/22 00:50 EGPO 220050Z AUTO 31005KT 9999 BKN030/// BKN041/// 07/05 Q1008